Time;durP1;ratioP1;P1;durP2;ratioP2;P2;SDS_P1;SDS_P2;PMS_P1;PMS_P2;Temp;Humidity;BMP_temperature;BMP_pressure;BME280_temperature;BME280_humidity;BME280_pressure;Samples;Min_cycle;Max_cycle;Signal;HPM_P1;HPM_P2
2021/06/29 00:02:17;;;;;;;16.92;6.40;;;16.10;75.70;;;;;;4976442;28;20042;-78
2021/06/29 00:04:43;;;;;;;14.48;6.70;;;16.00;76.00;;;;;;4976469;28;20545;-78
2021/06/29 00:07:08;;;;;;;17.70;6.35;;;15.90;76.40;;;;;;4976106;28;20027;-77
2021/06/29 00:09:35;;;;;;;14.27;6.35;;;15.90;76.80;;;;;;4976150;28;20018;-78
2021/06/29 00:12:01;;;;;;;14.98;6.68;;;15.80;77.10;;;;;;4976279;28;20399;-77
2021/06/29 00:14:28;;;;;;;16.30;6.32;;;15.80;77.40;;;;;;4976039;28;20042;-77
2021/06/29 00:16:54;;;;;;;14.50;6.78;;;15.80;77.70;;;;;;4975962;28;20031;-77
2021/06/29 00:19:20;;;;;;;14.38;5.78;;;15.70;78.00;;;;;;4976194;28;20023;-81
2021/06/29 00:21:48;;;;;;;16.73;6.18;;;15.70;78.50;;;;;;4976116;28;20498;-80
2021/06/29 00:24:13;;;;;;;16.77;6.10;;;15.60;78.70;;;;;;4975857;28;20106;-80
2021/06/29 00:26:40;;;;;;;13.20;6.38;;;15.60;79.00;;;;;;4975858;28;20055;-79
2021/06/29 00:29:06;;;;;;;15.98;6.78;;;15.60;79.50;;;;;;4975871;28;20110;-79
2021/06/29 00:31:32;;;;;;;14.52;6.13;;;15.50;79.90;;;;;;4975824;28;20618;-78
2021/06/29 00:33:57;;;;;;;12.57;6.18;;;15.50;80.40;;;;;;4975829;28;20031;-78
2021/06/29 00:36:23;;;;;;;19.90;6.57;;;15.40;80.90;;;;;;4975717;28;20034;-78
2021/06/29 00:38:49;;;;;;;14.85;5.75;;;15.40;81.30;;;;;;4975506;28;20030;-79
2021/06/29 00:41:15;;;;;;;15.82;6.00;;;15.30;81.80;;;;;;4975845;28;20482;-78
2021/06/29 00:43:49;;;;;;;14.27;6.10;;;15.30;82.30;;;;;;4974538;28;20026;-78
2021/06/29 00:46:16;;;;;;;17.75;6.30;;;15.30;82.60;;;;;;4975636;28;20027;-78
2021/06/29 00:48:42;;;;;;;13.60;6.25;;;15.30;82.90;;;;;;4975714;28;20399;-78
2021/06/29 00:51:11;;;;;;;14.05;5.85;;;15.30;83.30;;;;;;4975548;28;20023;-78
2021/06/29 00:53:37;;;;;;;18.90;6.80;;;15.20;83.90;;;;;;4973817;28;20494;-78
2021/06/29 00:56:03;;;;;;;13.57;7.10;;;15.20;84.30;;;;;;4975470;28;20031;-77
2021/06/29 00:58:28;;;;;;;18.20;6.43;;;15.10;84.60;;;;;;4975310;28;20401;-78
2021/06/29 01:00:54;;;;;;;16.30;6.85;;;15.10;85.30;;;;;;4975098;28;20038;-77
2021/06/29 01:03:20;;;;;;;17.80;7.38;;;15.00;86.00;;;;;;4975299;28;20023;-77
2021/06/29 01:05:45;;;;;;;14.82;7.60;;;15.00;86.90;;;;;;4975611;28;20050;-77
2021/06/29 01:08:11;;;;;;;16.05;6.85;;;14.90;87.60;;;;;;4975028;28;20537;-78
2021/06/29 01:10:37;;;;;;;18.95;7.35;;;14.80;88.00;;;;;;4975233;28;20031;-77
2021/06/29 01:13:03;;;;;;;16.30;6.90;;;14.90;88.40;;;;;;4974976;28;20419;-76
2021/06/29 01:15:29;;;;;;;18.02;6.15;;;14.80;89.10;;;;;;4975166;28;20070;-76
2021/06/29 01:54:09;;;;;;;16.73;7.32;;;14.30;94.10;;;;;;4989509;28;20517;-73
2021/06/29 01:56:37;;;;;;;13.65;6.97;;;14.30;94.50;;;;;;4993728;28;20057;-73
2021/06/29 01:59:12;;;;;;;26.33;7.53;;;14.30;94.90;;;;;;4993336;28;20018;-72
2021/06/29 02:01:38;;;;;;;13.82;6.60;;;14.20;95.30;;;;;;4993389;28;20062;-71
2021/06/29 02:04:05;;;;;;;16.73;6.97;;;14.20;95.70;;;;;;4993345;28;20031;-72
2021/06/29 02:06:30;;;;;;;14.90;6.78;;;14.20;95.90;;;;;;4993612;28;20026;-71
2021/06/29 02:08:56;;;;;;;15.07;6.88;;;14.10;96.20;;;;;;4993261;28;20522;-71
2021/06/29 02:11:22;;;;;;;15.60;6.50;;;14.10;96.60;;;;;;4993219;28;20027;-72
2021/06/29 02:13:48;;;;;;;14.25;6.82;;;14.10;96.80;;;;;;4993508;28;20117;-71
2021/06/29 02:16:14;;;;;;;16.58;6.65;;;14.10;96.80;;;;;;4993218;28;20090;-71
2021/06/29 02:18:40;;;;;;;13.48;5.55;;;14.10;96.90;;;;;;4993442;28;20697;-71
2021/06/29 02:21:06;;;;;;;12.73;5.75;;;14.10;97.00;;;;;;4993366;28;20034;-71
2021/06/29 02:23:32;;;;;;;15.88;6.50;;;14.10;97.40;;;;;;4992955;28;20430;-72
2021/06/29 02:25:58;;;;;;;16.30;6.13;;;14.10;97.70;;;;;;4993395;28;20030;-73
2021/06/29 02:28:24;;;;;;;16.63;6.30;;;14.10;97.90;;;;;;4993182;28;20054;-73
2021/06/29 02:30:50;;;;;;;16.45;5.78;;;14.10;98.10;;;;;;4993289;28;20031;-73
2021/06/29 02:33:15;;;;;;;12.52;5.82;;;14.10;97.90;;;;;;4992842;28;20092;-73
2021/06/29 02:35:41;;;;;;;14.35;5.85;;;14.20;98.10;;;;;;4993263;28;20629;-73
2021/06/29 02:38:07;;;;;;;14.30;6.18;;;14.20;98.00;;;;;;4993089;28;20492;-73
2021/06/29 02:40:33;;;;;;;15.35;6.07;;;14.20;97.80;;;;;;4992968;28;20386;-73
2021/06/29 02:43:00;;;;;;;18.67;6.60;;;14.20;98.00;;;;;;4992711;28;20026;-73
2021/06/29 02:45:26;;;;;;;10.77;5.22;;;14.20;98.10;;;;;;4992711;28;20105;-73
2021/06/29 02:47:53;;;;;;;15.18;6.15;;;14.30;98.10;;;;;;4993078;28;20057;-73
2021/06/29 02:50:20;;;;;;;13.77;5.38;;;14.30;98.10;;;;;;4992981;28;20037;-75
2021/06/29 02:52:46;;;;;;;11.45;5.93;;;14.40;98.00;;;;;;4983216;28;20490;-75
2021/06/29 02:55:13;;;;;;;14.70;5.50;;;14.60;97.50;;;;;;4973467;28;20054;-75
2021/06/29 02:57:39;;;;;;;12.48;5.85;;;14.80;97.00;;;;;;4973417;28;20047;-75
2021/06/29 03:00:12;;;;;;;10.13;5.47;;;15.00;96.30;;;;;;4973253;28;20035;-74
2021/06/29 03:02:38;;;;;;;13.85;5.85;;;15.00;95.90;;;;;;4973284;28;20031;-75
2021/06/29 03:05:04;;;;;;;12.15;5.72;;;15.10;95.90;;;;;;4973152;28;20030;-75
2021/06/29 03:07:31;;;;;;;14.57;5.90;;;15.10;95.70;;;;;;4972635;28;20467;-75
2021/06/29 03:09:56;;;;;;;12.65;6.05;;;15.10;95.80;;;;;;4973066;28;20395;-75
2021/06/29 03:12:23;;;;;;;12.57;5.47;;;15.10;95.60;;;;;;4972995;28;20029;-75
2021/06/29 03:14:53;;;;;;;10.10;5.25;;;15.10;95.20;;;;;;4973352;28;20027;-75
2021/06/29 03:17:19;;;;;;;8.10;5.25;;;15.10;94.80;;;;;;4972949;28;20034;-72
2021/06/29 03:19:45;;;;;;;13.07;5.45;;;15.20;94.80;;;;;;4973026;28;20034;-71
2021/06/29 03:22:11;;;;;;;13.05;5.40;;;15.30;94.70;;;;;;4972935;28;20031;-73
2021/06/29 03:24:37;;;;;;;17.67;5.40;;;15.60;93.70;;;;;;4972769;28;20031;-71
2021/06/29 03:27:03;;;;;;;13.25;5.30;;;16.00;92.80;;;;;;4972962;28;20034;-71
2021/06/29 03:29:28;;;;;;;15.30;4.85;;;16.40;91.40;;;;;;4972746;28;20023;-71
2021/06/29 03:31:54;;;;;;;14.25;5.25;;;16.80;90.30;;;;;;4973046;28;20078;-71
2021/06/29 03:34:20;;;;;;;8.32;4.80;;;17.10;87.90;;;;;;4972781;28;20030;-72
2021/06/29 03:36:46;;;;;;;9.30;5.15;;;17.40;85.50;;;;;;4972874;28;20471;-72
2021/06/29 03:39:11;;;;;;;12.80;4.78;;;17.60;83.60;;;;;;4973072;28;20046;-72
2021/06/29 03:41:37;;;;;;;17.23;5.20;;;17.90;81.90;;;;;;4973101;28;20515;-72
2021/06/29 03:44:04;;;;;;;12.25;5.03;;;18.00;80.20;;;;;;4973129;28;20019;-73
2021/06/29 03:46:30;;;;;;;11.80;5.00;;;18.30;78.80;;;;;;4972959;28;20039;-73
2021/06/29 03:48:56;;;;;;;11.95;4.70;;;18.50;77.30;;;;;;4972779;28;20501;-73
2021/06/29 03:51:21;;;;;;;16.88;4.95;;;18.70;75.40;;;;;;4972650;28;20367;-74
2021/06/29 03:53:47;;;;;;;11.00;4.40;;;19.00;73.60;;;;;;4972588;28;20050;-72
2021/06/29 03:56:32;;;;;;;12.38;4.60;;;19.10;72.40;;;;;;4973148;28;20113;-72
2021/06/29 03:59:08;;;;;;;11.55;4.68;;;19.30;72.10;;;;;;4973017;28;20109;-72
2021/06/29 04:01:35;;;;;;;9.27;4.35;;;19.60;70.50;;;;;;4972539;28;20410;-72
2021/06/29 04:04:02;;;;;;;8.27;4.93;;;19.80;67.80;;;;;;4972643;28;20026;-72
2021/06/29 04:06:33;;;;;;;11.65;4.88;;;20.10;67.30;;;;;;4972767;28;20437;-72
2021/06/29 04:08:59;;;;;;;12.15;4.75;;;20.30;65.60;;;;;;4955215;28;20474;-72
2021/06/29 04:11:28;;;;;;;10.65;4.32;;;20.50;65.10;;;;;;4972402;28;20368;-72
2021/06/29 04:13:54;;;;;;;6.68;3.75;;;20.70;62.00;;;;;;4972552;28;20057;-72
2021/06/29 04:16:20;;;;;;;10.20;4.50;;;20.90;60.70;;;;;;4972634;28;20038;-72
2021/06/29 04:18:46;;;;;;;6.80;3.65;;;21.00;60.00;;;;;;4974600;28;20513;-72
2021/06/29 04:21:12;;;;;;;7.60;3.67;;;21.10;58.40;;;;;;4976261;28;20394;-72
2021/06/29 04:23:39;;;;;;;12.00;3.53;;;21.30;57.50;;;;;;4975827;28;20165;-72
2021/06/29 04:26:05;;;;;;;10.07;4.10;;;21.50;56.80;;;;;;4976317;28;20027;-72
2021/06/29 04:28:31;;;;;;;10.35;3.75;;;21.60;56.00;;;;;;4975949;28;20035;-74
2021/06/29 04:30:58;;;;;;;11.18;3.42;;;21.70;55.60;;;;;;4976166;28;20113;-74
2021/06/29 04:33:24;;;;;;;13.43;3.88;;;21.80;55.70;;;;;;4975611;28;20494;-75
2021/06/29 04:35:50;;;;;;;13.88;3.63;;;22.00;55.50;;;;;;4975894;28;20078;-75
2021/06/29 04:38:15;;;;;;;7.93;3.83;;;22.20;55.70;;;;;;4973930;28;20109;-77
2021/06/29 04:40:41;;;;;;;10.38;4.10;;;22.40;54.70;;;;;;4975027;28;20451;-78
2021/06/29 04:43:07;;;;;;;9.75;3.33;;;22.60;53.50;;;;;;4975192;28;20551;-76
2021/06/29 04:45:34;;;;;;;4.30;3.15;;;22.90;53.10;;;;;;4975346;28;20026;-76
2021/06/29 04:48:00;;;;;;;12.00;3.63;;;23.10;52.50;;;;;;4975364;28;20038;-77
2021/06/29 04:50:25;;;;;;;8.48;3.85;;;23.10;52.00;;;;;;4975264;28;20022;-74
2021/06/29 04:52:51;;;;;;;13.63;3.10;;;23.20;51.70;;;;;;4974919;28;20047;-76
2021/06/29 04:55:18;;;;;;;7.35;3.40;;;23.20;51.50;;;;;;4975149;28;20113;-78
2021/06/29 04:57:44;;;;;;;11.00;3.55;;;23.30;51.40;;;;;;4974985;28;20537;-74
2021/06/29 05:00:14;;;;;;;9.35;3.60;;;23.40;50.90;;;;;;4974873;28;20043;-73
2021/06/29 05:02:40;;;;;;;7.95;3.45;;;23.50;50.70;;;;;;4974891;28;20386;-75
2021/06/29 05:05:06;;;;;;;16.00;4.05;;;23.70;51.20;;;;;;4974988;28;20034;-75
2021/06/29 05:07:32;;;;;;;7.45;2.92;;;23.80;50.20;;;;;;4975172;28;20030;-75
2021/06/29 05:09:58;;;;;;;6.75;3.25;;;23.70;49.60;;;;;;4974918;28;20031;-75
2021/06/29 05:12:24;;;;;;;7.40;3.28;;;23.80;49.40;;;;;;4974762;28;20026;-75
2021/06/29 05:14:50;;;;;;;9.18;3.40;;;23.90;49.50;;;;;;4974903;28;20161;-75
2021/06/29 05:17:16;;;;;;;9.48;3.28;;;24.00;50.20;;;;;;4974940;28;20109;-75
2021/06/29 05:19:41;;;;;;;6.43;3.28;;;24.10;49.00;;;;;;4981958;28;20027;-75
2021/06/29 05:22:07;;;;;;;5.43;3.05;;;24.10;48.90;;;;;;4994289;28;20541;-81
2021/06/29 05:24:33;;;;;;;17.08;3.47;;;24.10;49.20;;;;;;4994061;28;20019;-73
2021/06/29 05:26:59;;;;;;;6.53;3.38;;;24.20;48.60;;;;;;4994225;28;20030;-73
2021/06/29 05:29:25;;;;;;;5.53;3.28;;;24.20;48.50;;;;;;4993800;28;20018;-73
2021/06/29 05:31:51;;;;;;;6.43;3.03;;;24.30;48.80;;;;;;5009104;28;20389;-73
2021/06/29 05:34:17;;;;;;;7.35;2.88;;;24.40;47.90;;;;;;4994005;28;20030;-73
2021/06/29 05:36:43;;;;;;;7.03;3.25;;;24.30;47.10;;;;;;4994012;28;20022;-73
2021/06/29 05:39:09;;;;;;;9.10;3.10;;;24.40;47.00;;;;;;4994001;28;20026;-73
2021/06/29 05:41:36;;;;;;;7.07;3.40;;;24.40;46.20;;;;;;4993851;28;20044;-73
2021/06/29 05:44:02;;;;;;;6.20;2.78;;;24.40;47.00;;;;;;4994185;28;20026;-73
2021/06/29 05:46:28;;;;;;;6.78;3.03;;;24.40;46.70;;;;;;4993849;28;20031;-73
2021/06/29 05:48:54;;;;;;;7.70;3.22;;;24.50;46.60;;;;;;4993849;28;20049;-72
2021/06/29 05:51:21;;;;;;;7.57;3.85;;;24.60;47.00;;;;;;4993971;28;20381;-72
2021/06/29 05:53:47;;;;;;;4.97;2.97;;;24.50;47.20;;;;;;4993430;28;20035;-72
2021/06/29 05:56:13;;;;;;;9.95;4.00;;;24.60;46.90;;;;;;4993967;28;20034;-83
2021/06/29 05:58:40;;;;;;;10.15;3.22;;;24.70;46.50;;;;;;4993563;28;20202;-76
2021/06/29 06:01:06;;;;;;;12.55;4.25;;;24.80;46.60;;;;;;4993534;28;20034;-75
2021/06/29 06:03:32;;;;;;;11.50;3.80;;;25.00;46.40;;;;;;4993289;28;20057;-78
2021/06/29 06:05:58;;;;;;;6.97;3.38;;;24.90;45.50;;;;;;4993380;28;20029;-76
2021/06/29 06:08:24;;;;;;;10.05;4.00;;;24.90;46.70;;;;;;4993352;28;20027;-75
2021/06/29 06:10:51;;;;;;;8.60;3.97;;;24.90;45.90;;;;;;4993489;28;20034;-73
2021/06/29 06:13:17;;;;;;;8.77;3.67;;;24.90;45.30;;;;;;4993230;28;20022;-73
2021/06/29 06:15:42;;;;;;;7.57;3.67;;;24.80;45.60;;;;;;4993188;28;20081;-72
2021/06/29 06:18:09;;;;;;;12.95;4.72;;;24.90;45.70;;;;;;4993264;28;20034;-72
2021/06/29 06:20:35;;;;;;;6.35;3.42;;;24.90;46.20;;;;;;4992802;28;20049;-72
2021/06/29 06:23:02;;;;;;;11.43;3.95;;;24.90;45.40;;;;;;4993127;28;20018;-73
2021/06/29 06:25:28;;;;;;;9.00;3.20;;;24.80;45.00;;;;;;4975477;28;20519;-73
2021/06/29 06:27:54;;;;;;;8.93;3.80;;;24.70;45.20;;;;;;4993177;28;20485;-73
2021/06/29 06:30:21;;;;;;;9.98;3.53;;;24.90;45.30;;;;;;4975618;28;20030;-73
2021/06/29 06:32:47;;;;;;;13.07;3.50;;;24.90;44.80;;;;;;4992833;28;20334;-73
2021/06/29 06:35:13;;;;;;;12.45;3.47;;;24.90;45.00;;;;;;4975407;28;20473;-73
2021/06/29 06:37:38;;;;;;;8.82;3.38;;;24.80;45.30;;;;;;4992877;28;20037;-73
2021/06/29 06:40:06;;;;;;;11.13;3.58;;;25.00;45.90;;;;;;4992419;28;20026;-75
2021/06/29 06:42:32;;;;;;;7.18;3.45;;;24.90;45.50;;;;;;4974161;28;20034;-74
2021/06/29 06:44:58;;;;;;;9.45;3.63;;;24.90;45.60;;;;;;4973427;28;20030;-74
2021/06/29 06:47:23;;;;;;;7.18;3.50;;;25.00;45.90;;;;;;4973407;28;20030;-74
2021/06/29 06:49:50;;;;;;;7.90;3.00;;;25.00;45.70;;;;;;4973388;28;20026;-74
2021/06/29 06:52:17;;;;;;;5.20;2.97;;;25.00;45.70;;;;;;4973148;28;20054;-74
2021/06/29 06:54:43;;;;;;;8.50;3.85;;;25.00;45.20;;;;;;4973056;28;20042;-74
2021/06/29 06:57:10;;;;;;;9.60;3.60;;;24.90;45.30;;;;;;4983821;28;20050;-74
2021/06/29 06:59:36;;;;;;;8.88;3.72;;;24.70;45.60;;;;;;4986811;28;20374;-74
2021/06/29 07:02:02;;;;;;;9.32;3.97;;;24.60;45.80;;;;;;4973045;28;20039;-74
2021/06/29 07:04:28;;;;;;;7.68;3.33;;;24.60;46.10;;;;;;4982439;28;20027;-74
2021/06/29 07:06:53;;;;;;;12.70;4.10;;;24.60;46.20;;;;;;4992817;28;20106;-74
2021/06/29 07:09:20;;;;;;;9.00;3.92;;;24.40;46.10;;;;;;4992551;28;20162;-74
2021/06/29 07:11:46;;;;;;;7.35;3.55;;;24.40;46.50;;;;;;4992368;28;20109;-74
2021/06/29 07:14:12;;;;;;;11.05;3.78;;;24.40;46.90;;;;;;4978123;28;20039;-74
2021/06/29 07:16:38;;;;;;;10.40;3.72;;;24.40;46.90;;;;;;4980392;28;20481;-72
2021/06/29 07:19:05;;;;;;;8.63;3.65;;;24.30;47.10;;;;;;4992787;28;20081;-72
2021/06/29 07:21:31;;;;;;;15.02;3.47;;;24.40;47.20;;;;;;4992270;28;20038;-72
2021/06/29 07:23:57;;;;;;;10.98;3.95;;;24.50;47.50;;;;;;4992437;28;20042;-72
2021/06/29 07:26:23;;;;;;;7.30;3.60;;;24.60;48.10;;;;;;4992328;28;20558;-72
2021/06/29 07:28:50;;;;;;;10.27;3.90;;;24.60;47.30;;;;;;4992295;28;20026;-72
2021/06/29 07:31:17;;;;;;;8.07;3.70;;;24.50;46.90;;;;;;4986264;28;20027;-72
2021/06/29 07:33:47;;;;;;;11.10;3.67;;;24.60;46.80;;;;;;4965189;28;20454;-72
2021/06/29 07:36:15;;;;;;;8.65;3.92;;;24.50;47.90;;;;;;4983343;28;20031;-72
2021/06/29 07:38:44;;;;;;;9.65;3.53;;;24.50;48.00;;;;;;4983301;28;20031;-73
2021/06/29 07:41:11;;;;;;;8.80;3.60;;;24.50;47.90;;;;;;4985882;28;20046;-73
2021/06/29 07:43:37;;;;;;;12.93;3.90;;;24.20;47.80;;;;;;4983117;28;20113;-73
2021/06/29 07:46:03;;;;;;;9.02;3.92;;;24.00;47.90;;;;;;4981586;28;20050;-73
2021/06/29 07:48:29;;;;;;;9.15;4.00;;;24.00;48.50;;;;;;4979601;28;20102;-72
2021/06/29 07:50:55;;;;;;;10.25;4.55;;;23.90;48.50;;;;;;4955338;28;20031;-72
2021/06/29 07:53:22;;;;;;;12.85;3.90;;;23.90;48.40;;;;;;4975156;28;20564;-72
2021/06/29 07:55:49;;;;;;;16.75;4.20;;;23.90;48.80;;;;;;4976559;28;20031;-73
2021/06/29 07:58:18;;;;;;;8.02;4.50;;;24.00;49.80;;;;;;4976371;28;20534;-71
2021/06/29 08:00:44;;;;;;;10.15;4.43;;;24.10;48.80;;;;;;4976405;28;20378;-72
2021/06/29 08:03:10;;;;;;;11.93;5.07;;;24.00;48.90;;;;;;4976425;28;20539;-72
2021/06/29 08:05:35;;;;;;;12.80;4.70;;;23.80;48.60;;;;;;4976443;28;20151;-73
2021/06/29 08:08:01;;;;;;;10.85;4.50;;;23.80;49.60;;;;;;4976271;28;20026;-74
2021/06/29 08:10:27;;;;;;;10.15;4.70;;;23.70;48.50;;;;;;4976179;28;20030;-79
2021/06/29 08:12:53;;;;;;;12.38;4.38;;;23.70;49.60;;;;;;4976321;28;20117;-78
2021/06/29 08:15:19;;;;;;;12.63;4.10;;;23.60;49.40;;;;;;4984157;28;20030;-76
2021/06/29 08:17:46;;;;;;;14.55;4.13;;;23.60;49.50;;;;;;4995487;28;20034;-76
2021/06/29 08:20:16;;;;;;;10.85;4.55;;;23.40;50.00;;;;;;4995410;28;20413;-76
2021/06/29 08:22:43;;;;;;;10.93;4.55;;;23.30;50.30;;;;;;4995203;28;20389;-76
2021/06/29 08:25:10;;;;;;;12.55;4.28;;;23.40;50.30;;;;;;4995251;28;20498;-76
2021/06/29 08:27:37;;;;;;;9.38;4.25;;;23.40;49.90;;;;;;4995384;28;20041;-76
2021/06/29 08:30:05;;;;;;;13.52;4.63;;;23.50;50.70;;;;;;4995061;28;20037;-76
2021/06/29 08:32:31;;;;;;;13.70;4.97;;;23.60;50.40;;;;;;4995108;28;20046;-76
2021/06/29 08:34:57;;;;;;;13.25;4.45;;;23.70;49.80;;;;;;4995022;28;20018;-76
2021/06/29 08:37:23;;;;;;;7.10;4.07;;;23.70;49.40;;;;;;4995243;28;20034;-76
2021/06/29 08:39:49;;;;;;;16.02;4.53;;;23.70;49.10;;;;;;4994988;28;20026;-76
2021/06/29 08:42:22;;;;;;;7.95;4.68;;;23.80;50.10;;;;;;4985489;28;20035;-72
2021/06/29 08:44:48;;;;;;;7.55;5.10;;;23.90;50.40;;;;;;4982982;28;20101;-73
2021/06/29 08:47:14;;;;;;;8.55;4.68;;;24.10;50.30;;;;;;4989005;28;20058;-72
2021/06/29 08:49:40;;;;;;;10.98;4.30;;;24.10;49.90;;;;;;4994571;28;20030;-72
2021/06/29 08:52:07;;;;;;;12.38;4.50;;;24.20;50.20;;;;;;4994492;28;20018;-74
2021/06/29 08:54:34;;;;;;;10.43;4.60;;;24.20;49.60;;;;;;4994704;28;20030;-73
2021/06/29 08:57:02;;;;;;;10.15;4.28;;;24.10;50.20;;;;;;4977143;28;20606;-73
2021/06/29 08:59:28;;;;;;;8.50;4.20;;;24.10;50.40;;;;;;4993515;28;20033;-73
2021/06/29 09:01:54;;;;;;;9.32;4.63;;;24.00;50.30;;;;;;4985513;28;20069;-73
2021/06/29 09:04:42;;;;;;;11.35;4.50;;;24.00;49.80;;;;;;4981376;28;20069;-73
2021/06/29 09:07:21;;;;;;;10.35;4.53;;;24.00;50.50;;;;;;4975145;28;20035;-74
2021/06/29 09:09:55;;;;;;;10.35;4.30;;;24.00;50.20;;;;;;4975003;28;20022;-77
2021/06/29 09:12:47;;;;;;;9.43;4.85;;;24.00;50.60;;;;;;4974596;28;20129;-72
2021/06/29 09:15:33;;;;;;;11.90;4.75;;;24.00;50.80;;;;;;4975791;28;20066;-72
2021/06/29 09:18:10;;;;;;;16.35;4.70;;;24.00;50.30;;;;;;4979816;28;20462;-73
2021/06/29 09:20:38;;;;;;;13.00;4.07;;;24.00;50.00;;;;;;4965731;28;20387;-73
2021/06/29 09:23:24;;;;;;;13.10;4.55;;;23.90;50.50;;;;;;4974507;28;20033;-73
2021/06/29 09:25:58;;;;;;;14.68;4.60;;;23.90;50.20;;;;;;4974816;28;20035;-72
2021/06/29 09:28:30;;;;;;;14.05;4.47;;;23.90;50.30;;;;;;4974325;28;20023;-75
2021/06/29 09:31:17;;;;;;;16.70;5.18;;;23.80;50.60;;;;;;4974500;28;20430;-72
2021/06/29 09:33:46;;;;;;;10.90;4.85;;;23.80;51.10;;;;;;4974014;28;20035;-72
2021/06/29 09:36:21;;;;;;;10.07;4.78;;;23.80;51.10;;;;;;4974549;28;20022;-73
2021/06/29 09:38:48;;;;;;;13.77;5.07;;;23.80;51.00;;;;;;4973755;28;20034;-72
2021/06/29 09:41:28;;;;;;;13.02;5.10;;;23.70;51.10;;;;;;4983082;28;20103;-72
2021/06/29 09:43:56;;;;;;;14.50;4.50;;;23.60;51.00;;;;;;4984147;28;20031;-72
2021/06/29 09:46:25;;;;;;;18.67;4.90;;;23.50;52.30;;;;;;4976768;28;20034;-76
2021/06/29 09:48:59;;;;;;;18.93;4.80;;;23.60;52.10;;;;;;4978912;28;20019;-72
2021/06/29 09:51:28;;;;;;;15.15;5.43;;;23.50;51.20;;;;;;4974285;28;20392;-72
2021/06/29 09:53:57;;;;;;;12.68;4.82;;;23.40;51.30;;;;;;4973944;28;20043;-72
2021/06/29 09:56:29;;;;;;;9.52;4.10;;;23.40;51.90;;;;;;4956978;28;20034;-72
2021/06/29 09:58:57;;;;;;;11.00;4.10;;;23.40;51.20;;;;;;4974426;28;20027;-72
2021/06/29 10:01:27;;;;;;;8.05;3.90;;;23.30;49.30;;;;;;4974231;28;20063;-72
2021/06/29 10:03:53;;;;;;;13.20;5.43;;;23.40;50.70;;;;;;4974407;28;20094;-72
2021/06/29 10:06:28;;;;;;;13.40;4.30;;;23.40;50.70;;;;;;4973976;28;20400;-72
2021/06/29 10:09:14;;;;;;;10.07;4.43;;;23.40;50.40;;;;;;4973800;28;20419;-72
2021/06/29 10:11:42;;;;;;;15.35;4.53;;;23.40;49.90;;;;;;4956400;28;20406;-72
2021/06/29 10:14:10;;;;;;;13.57;5.47;;;23.40;50.10;;;;;;4974125;28;20022;-72
2021/06/29 10:16:39;;;;;;;9.48;4.38;;;23.40;50.90;;;;;;4974142;28;20170;-71
2021/06/29 10:21:36;;;;;;;13.00;4.35;;;23.30;49.60;;;;;;4973805;28;20474;-71
2021/06/29 10:24:06;;;;;;;11.27;4.30;;;23.30;49.40;;;;;;4973858;28;20031;-72
2021/06/29 10:26:34;;;;;;;9.93;4.40;;;23.30;50.00;;;;;;4973986;28;20038;-71
2021/06/29 10:29:02;;;;;;;10.35;4.93;;;23.30;50.50;;;;;;4973852;28;20029;-71
2021/06/29 10:31:33;;;;;;;9.02;4.15;;;23.30;49.60;;;;;;4973610;28;20034;-71
2021/06/29 10:34:01;;;;;;;12.75;4.57;;;23.30;50.40;;;;;;4973778;28;20031;-71
2021/06/29 10:36:29;;;;;;;15.05;4.90;;;23.30;49.30;;;;;;4973825;28;20031;-72
2021/06/29 10:38:56;;;;;;;27.75;5.05;;;23.40;50.00;;;;;;4973406;28;20036;-72
2021/06/29 10:41:26;;;;;;;7.95;4.25;;;23.30;50.10;;;;;;4973167;28;20101;-71
2021/06/29 10:43:52;;;;;;;20.92;5.65;;;23.20;50.00;;;;;;4973278;28;20019;-72
2021/06/29 10:46:30;;;;;;;9.05;4.35;;;23.20;50.60;;;;;;4973568;28;20035;-72
2021/06/29 10:49:16;;;;;;;7.88;4.55;;;23.30;50.80;;;;;;4973315;28;20474;-72
2021/06/29 10:51:42;;;;;;;14.15;4.65;;;23.40;50.00;;;;;;4973033;28;20031;-72
2021/06/29 10:54:46;;;;;;;15.15;4.88;;;23.40;50.30;;;;;;4973056;28;20582;-72
2021/06/29 10:57:16;;;;;;;21.15;6.13;;;23.50;51.30;;;;;;4973302;28;20497;-71
2021/06/29 10:59:46;;;;;;;9.38;4.63;;;23.40;50.50;;;;;;4972814;28;20559;-72
2021/06/29 11:02:15;;;;;;;9.05;5.32;;;23.40;51.00;;;;;;4973344;28;20035;-71
2021/06/29 11:04:47;;;;;;;13.85;5.20;;;23.40;51.00;;;;;;4972905;28;20025;-72
2021/06/29 11:07:35;;;;;;;11.60;4.50;;;23.50;51.30;;;;;;4973139;28;20099;-72
2021/06/29 11:10:27;;;;;;;9.43;4.57;;;23.60;50.60;;;;;;4973009;28;20067;-72
2021/06/29 11:12:56;;;;;;;17.77;5.63;;;23.80;52.20;;;;;;4968268;28;20398;-72
2021/06/29 11:15:42;;;;;;;15.60;4.47;;;23.80;50.50;;;;;;4972972;28;20027;-71
2021/06/29 11:18:08;;;;;;;15.13;4.90;;;23.80;50.30;;;;;;4972948;28;20035;-72
2021/06/29 11:20:45;;;;;;;10.35;4.45;;;23.90;50.40;;;;;;4972759;28;20117;-72
2021/06/29 11:23:23;;;;;;;18.55;5.18;;;23.80;49.40;;;;;;4972973;28;20023;-71
2021/06/29 11:25:50;;;;;;;12.63;5.07;;;23.90;50.20;;;;;;4972753;28;20162;-71
2021/06/29 11:28:28;;;;;;;17.63;4.55;;;23.90;50.00;;;;;;4975719;28;20374;-71
2021/06/29 11:31:09;;;;;;;14.60;4.68;;;23.90;49.70;;;;;;4976354;28;20031;-71
2021/06/29 11:33:35;;;;;;;12.52;4.63;;;23.80;49.60;;;;;;4977021;28;20045;-71
2021/06/29 11:36:02;;;;;;;11.40;4.50;;;23.90;49.50;;;;;;4976508;28;20482;-72
2021/06/29 11:38:37;;;;;;;9.80;4.63;;;23.80;48.80;;;;;;4976659;28;20034;-72
2021/06/29 11:41:27;;;;;;;14.13;4.65;;;23.70;48.70;;;;;;4976586;28;20042;-71
2021/06/29 11:43:54;;;;;;;11.55;4.15;;;23.70;49.60;;;;;;4976645;28;20486;-72
2021/06/29 11:46:47;;;;;;;10.98;4.32;;;23.70;50.30;;;;;;4976511;28;20027;-72
2021/06/29 11:49:15;;;;;;;11.40;3.78;;;23.70;49.40;;;;;;4976500;28;20019;-72
2021/06/29 11:51:59;;;;;;;9.40;4.22;;;23.70;49.20;;;;;;4976724;28;20023;-72
2021/06/29 11:54:38;;;;;;;11.82;4.07;;;23.70;50.10;;;;;;4976348;28;20074;-72
2021/06/29 11:57:41;;;;;;;13.88;4.20;;;23.60;49.70;;;;;;4976363;28;20030;-72
2021/06/29 12:00:26;;;;;;;8.57;4.15;;;23.60;51.20;;;;;;4976535;28;20035;-71
2021/06/29 12:03:16;;;;;;;9.23;4.70;;;23.60;50.90;;;;;;4976242;28;20035;-71
2021/06/29 12:05:42;;;;;;;11.57;4.07;;;23.60;50.00;;;;;;4976256;28;20023;-72
2021/06/29 12:08:10;;;;;;;9.43;4.10;;;23.60;50.70;;;;;;4976006;28;20033;-72
2021/06/29 12:10:46;;;;;;;7.60;4.00;;;23.70;50.50;;;;;;4976016;28;20027;-72
2021/06/29 12:13:17;;;;;;;9.57;4.32;;;23.60;50.30;;;;;;4975912;28;20486;-72
2021/06/29 12:15:50;;;;;;;12.88;4.53;;;23.50;50.60;;;;;;4975805;28;20041;-71
2021/06/29 12:18:25;;;;;;;11.93;4.13;;;23.40;50.70;;;;;;4975743;28;20031;-71
2021/06/29 12:21:00;;;;;;;11.82;4.10;;;23.40;50.60;;;;;;4975607;28;20199;-72
2021/06/29 12:23:32;;;;;;;5.93;3.83;;;23.40;50.50;;;;;;4976243;28;20031;-72
2021/06/29 12:26:06;;;;;;;10.50;3.97;;;23.30;50.20;;;;;;4975670;28;20027;-72
2021/06/29 12:28:36;;;;;;;9.77;4.22;;;23.40;51.30;;;;;;4975991;28;20019;-72
2021/06/29 12:31:08;;;;;;;8.90;4.32;;;23.50;51.30;;;;;;4975569;28;20491;-72
2021/06/29 12:33:35;;;;;;;11.90;4.53;;;23.60;50.10;;;;;;4976102;28;20110;-72
2021/06/29 12:36:06;;;;;;;6.47;3.20;;;23.60;50.60;;;;;;4975743;28;20045;-72
2021/06/29 12:38:35;;;;;;;11.73;3.70;;;23.50;50.00;;;;;;4974629;28;20391;-72
2021/06/29 12:41:05;;;;;;;6.05;3.65;;;23.60;50.20;;;;;;4975556;28;20046;-72
2021/06/29 12:43:40;;;;;;;12.25;3.30;;;23.50;49.40;;;;;;4975456;28;20033;-72
2021/06/29 12:46:26;;;;;;;12.50;4.03;;;23.50;48.10;;;;;;4975444;28;20147;-72
2021/06/29 12:48:56;;;;;;;10.82;3.55;;;23.40;48.90;;;;;;4975534;28;20023;-72
2021/06/29 12:51:22;;;;;;;;;;;23.40;49.20;;;;;;4975836;28;20098;-72
2021/06/29 12:54:01;;;;;;;5.53;3.25;;;23.40;49.60;;;;;;4975163;28;20394;-72
2021/06/29 12:56:38;;;;;;;8.15;3.67;;;23.40;50.60;;;;;;4975380;28;20060;-72
2021/06/29 12:59:06;;;;;;;6.45;3.25;;;23.30;51.10;;;;;;4975162;28;20486;-72
2021/06/29 13:01:34;;;;;;;7.90;3.97;;;23.30;51.20;;;;;;4975241;28;20368;-72
2021/06/29 13:04:07;;;;;;;9.32;3.60;;;23.40;51.30;;;;;;4975134;28;20501;-71
2021/06/29 13:06:33;;;;;;;9.82;3.55;;;23.30;51.20;;;;;;4975359;28;20026;-71
2021/06/29 13:09:15;;;;;;;7.07;3.50;;;23.30;50.60;;;;;;4975551;28;20493;-71
2021/06/29 13:11:55;;;;;;;7.20;3.30;;;23.30;51.40;;;;;;4975022;28;20113;-71
2021/06/29 13:14:20;;;;;;;11.45;3.28;;;23.30;51.00;;;;;;4975055;28;20060;-71
2021/06/29 13:16:46;;;;;;;7.10;3.38;;;23.20;51.00;;;;;;4957636;28;20038;-71
2021/06/29 13:19:20;;;;;;;7.63;3.00;;;23.20;51.30;;;;;;4975076;28;20031;-71
2021/06/29 13:21:59;;;;;;;9.10;2.92;;;23.20;51.00;;;;;;4974733;28;20125;-71
2021/06/29 13:24:26;;;;;;;6.53;3.13;;;23.10;51.50;;;;;;4975123;28;20026;-70
2021/06/29 13:26:57;;;;;;;4.20;3.00;;;23.00;51.50;;;;;;4974436;28;20129;-70
2021/06/29 13:29:29;;;;;;;8.43;3.17;;;22.90;51.40;;;;;;4957314;28;20045;-71